sensor_id;sensor_type;location;lat;lon;timestamp;P1;durP1;ratioP1;P2;durP2;ratioP2
20669;SDS011;10494;50.868;4.180;2022-09-02T00:01:19;6.60;;;2.60;;
20669;SDS011;10494;50.868;4.180;2022-09-02T00:03:50;6.05;;;2.53;;
20669;SDS011;10494;50.868;4.180;2022-09-02T00:06:19;4.88;;;2.50;;
20669;SDS011;10494;50.868;4.180;2022-09-02T00:08:44;9.95;;;2.70;;
20669;SDS011;10494;50.868;4.180;2022-09-02T00:11:14;3.53;;;2.40;;
20669;SDS011;10494;50.868;4.180;2022-09-02T00:13:42;5.82;;;2.70;;
20669;SDS011;10494;50.868;4.180;2022-09-02T00:16:08;3.45;;;2.60;;
20669;SDS011;10494;50.868;4.180;2022-09-02T00:18:35;5.20;;;3.13;;
20669;SDS011;10494;50.868;4.180;2022-09-02T00:21:02;5.40;;;2.60;;
20669;SDS011;10494;50.868;4.180;2022-09-02T00:23:28;4.38;;;2.53;;
20669;SDS011;10494;50.868;4.180;2022-09-02T00:25:53;4.97;;;2.70;;
20669;SDS011;10494;50.868;4.180;2022-09-02T00:28:19;3.58;;;2.63;;
20669;SDS011;10494;50.868;4.180;2022-09-02T00:30:45;4.97;;;2.92;;
20669;SDS011;10494;50.868;4.180;2022-09-02T00:33:11;7.05;;;3.10;;
20669;SDS011;10494;50.868;4.180;2022-09-02T00:35:37;21.02;;;3.28;;
20669;SDS011;10494;50.868;4.180;2022-09-02T00:38:03;6.40;;;3.13;;
20669;SDS011;10494;50.868;4.180;2022-09-02T00:40:30;6.45;;;2.65;;
20669;SDS011;10494;50.868;4.180;2022-09-02T00:42:56;4.63;;;2.85;;
20669;SDS011;10494;50.868;4.180;2022-09-02T00:45:22;5.90;;;3.30;;
20669;SDS011;10494;50.868;4.180;2022-09-02T00:47:48;5.78;;;2.97;;
20669;SDS011;10494;50.868;4.180;2022-09-02T00:50:18;6.35;;;3.33;;
20669;SDS011;10494;50.868;4.180;2022-09-02T00:52:48;10.48;;;4.10;;
20669;SDS011;10494;50.868;4.180;2022-09-02T00:55:21;6.53;;;3.08;;
20669;SDS011;10494;50.868;4.180;2022-09-02T00:57:50;6.55;;;2.70;;
20669;SDS011;10494;50.868;4.180;2022-09-02T01:00:25;5.82;;;3.50;;
20669;SDS011;10494;50.868;4.180;2022-09-02T01:02:54;5.07;;;3.13;;
20669;SDS011;10494;50.868;4.180;2022-09-02T01:05:38;4.00;;;2.90;;
20669;SDS011;10494;50.868;4.180;2022-09-02T01:08:09;19.48;;;4.45;;
20669;SDS011;10494;50.868;4.180;2022-09-02T01:10:44;8.05;;;3.20;;
20669;SDS011;10494;50.868;4.180;2022-09-02T01:13:14;4.05;;;3.08;;
20669;SDS011;10494;50.868;4.180;2022-09-02T01:15:46;9.20;;;3.15;;
20669;SDS011;10494;50.868;4.180;2022-09-02T01:18:17;7.20;;;3.20;;
20669;SDS011;10494;50.868;4.180;2022-09-02T01:20:47;9.48;;;3.28;;
20669;SDS011;10494;50.868;4.180;2022-09-02T01:23:13;8.75;;;3.05;;
20669;SDS011;10494;50.868;4.180;2022-09-02T01:25:41;7.20;;;3.40;;
20669;SDS011;10494;50.868;4.180;2022-09-02T01:28:08;5.40;;;2.92;;
20669;SDS011;10494;50.868;4.180;2022-09-02T01:30:36;4.88;;;3.05;;
20669;SDS011;10494;50.868;4.180;2022-09-02T01:33:06;5.32;;;3.28;;
20669;SDS011;10494;50.868;4.180;2022-09-02T01:35:32;7.03;;;3.28;;
20669;SDS011;10494;50.868;4.180;2022-09-02T01:37:58;7.40;;;3.70;;
20669;SDS011;10494;50.868;4.180;2022-09-02T01:40:26;8.25;;;3.63;;
20669;SDS011;10494;50.868;4.180;2022-09-02T01:42:54;7.10;;;4.13;;
20669;SDS011;10494;50.868;4.180;2022-09-02T01:45:23;8.93;;;3.38;;
20669;SDS011;10494;50.868;4.180;2022-09-02T01:47:49;5.68;;;3.10;;
20669;SDS011;10494;50.868;4.180;2022-09-02T01:50:16;5.00;;;2.97;;
20669;SDS011;10494;50.868;4.180;2022-09-02T01:52:41;8.20;;;3.53;;
20669;SDS011;10494;50.868;4.180;2022-09-02T01:55:08;5.63;;;3.40;;
20669;SDS011;10494;50.868;4.180;2022-09-02T01:57:34;5.07;;;3.40;;
20669;SDS011;10494;50.868;4.180;2022-09-02T01:59:59;4.07;;;3.25;;
20669;SDS011;10494;50.868;4.180;2022-09-02T02:02:26;10.00;;;3.58;;
20669;SDS011;10494;50.868;4.180;2022-09-02T02:04:52;6.03;;;3.25;;
20669;SDS011;10494;50.868;4.180;2022-09-02T02:07:19;4.60;;;3.63;;
20669;SDS011;10494;50.868;4.180;2022-09-02T02:09:46;5.95;;;3.55;;
20669;SDS011;10494;50.868;4.180;2022-09-02T02:12:12;6.15;;;4.13;;
20669;SDS011;10494;50.868;4.180;2022-09-02T02:14:39;5.53;;;3.38;;
20669;SDS011;10494;50.868;4.180;2022-09-02T02:17:04;9.07;;;3.13;;
20669;SDS011;10494;50.868;4.180;2022-09-02T02:19:30;12.70;;;3.40;;
20669;SDS011;10494;50.868;4.180;2022-09-02T02:21:56;4.57;;;3.28;;
20669;SDS011;10494;50.868;4.180;2022-09-02T02:24:21;5.03;;;3.17;;
20669;SDS011;10494;50.868;4.180;2022-09-02T02:26:47;5.45;;;3.30;;
20669;SDS011;10494;50.868;4.180;2022-09-02T02:29:13;4.88;;;3.33;;
20669;SDS011;10494;50.868;4.180;2022-09-02T02:31:39;6.22;;;3.33;;
20669;SDS011;10494;50.868;4.180;2022-09-02T02:34:05;6.28;;;3.38;;
20669;SDS011;10494;50.868;4.180;2022-09-02T02:36:31;6.40;;;3.80;;
20669;SDS011;10494;50.868;4.180;2022-09-02T02:38:57;10.93;;;3.83;;
20669;SDS011;10494;50.868;4.180;2022-09-02T02:41:22;4.15;;;3.40;;
20669;SDS011;10494;50.868;4.180;2022-09-02T02:43:49;5.57;;;3.42;;
20669;SDS011;10494;50.868;4.180;2022-09-02T02:46:15;6.00;;;3.30;;
20669;SDS011;10494;50.868;4.180;2022-09-02T02:48:40;5.88;;;3.33;;
20669;SDS011;10494;50.868;4.180;2022-09-02T02:51:07;4.53;;;3.50;;
20669;SDS011;10494;50.868;4.180;2022-09-02T02:53:33;7.00;;;3.38;;
20669;SDS011;10494;50.868;4.180;2022-09-02T02:56:00;6.47;;;3.42;;
20669;SDS011;10494;50.868;4.180;2022-09-02T02:58:27;5.05;;;3.50;;
20669;SDS011;10494;50.868;4.180;2022-09-02T03:00:54;7.05;;;3.65;;
20669;SDS011;10494;50.868;4.180;2022-09-02T03:03:21;5.68;;;3.78;;
20669;SDS011;10494;50.868;4.180;2022-09-02T03:05:47;7.00;;;3.55;;
20669;SDS011;10494;50.868;4.180;2022-09-02T03:08:13;7.38;;;3.33;;
20669;SDS011;10494;50.868;4.180;2022-09-02T03:10:40;5.38;;;3.33;;
20669;SDS011;10494;50.868;4.180;2022-09-02T03:13:07;4.93;;;3.75;;
20669;SDS011;10494;50.868;4.180;2022-09-02T03:15:35;7.57;;;4.18;;
20669;SDS011;10494;50.868;4.180;2022-09-02T03:18:01;5.00;;;3.67;;
20669;SDS011;10494;50.868;4.180;2022-09-02T03:20:27;5.03;;;3.47;;
20669;SDS011;10494;50.868;4.180;2022-09-02T03:22:53;6.60;;;3.45;;
20669;SDS011;10494;50.868;4.180;2022-09-02T03:25:20;5.28;;;3.67;;
20669;SDS011;10494;50.868;4.180;2022-09-02T03:27:47;9.52;;;3.97;;
20669;SDS011;10494;50.868;4.180;2022-09-02T03:30:15;4.38;;;3.50;;
20669;SDS011;10494;50.868;4.180;2022-09-02T03:32:46;5.75;;;3.67;;
20669;SDS011;10494;50.868;4.180;2022-09-02T03:35:14;6.15;;;4.20;;
20669;SDS011;10494;50.868;4.180;2022-09-02T03:37:43;8.98;;;4.25;;
20669;SDS011;10494;50.868;4.180;2022-09-02T03:40:11;6.00;;;4.20;;
20669;SDS011;10494;50.868;4.180;2022-09-02T03:42:39;5.90;;;3.75;;
20669;SDS011;10494;50.868;4.180;2022-09-02T03:45:06;5.07;;;3.80;;
20669;SDS011;10494;50.868;4.180;2022-09-02T03:47:34;7.57;;;4.47;;
20669;SDS011;10494;50.868;4.180;2022-09-02T03:50:00;8.40;;;3.78;;
20669;SDS011;10494;50.868;4.180;2022-09-02T03:52:27;5.72;;;3.55;;
20669;SDS011;10494;50.868;4.180;2022-09-02T03:54:53;15.32;;;4.20;;
20669;SDS011;10494;50.868;4.180;2022-09-02T03:57:19;5.13;;;3.75;;
20669;SDS011;10494;50.868;4.180;2022-09-02T03:59:47;4.93;;;3.90;;
20669;SDS011;10494;50.868;4.180;2022-09-02T04:02:12;5.75;;;3.90;;
20669;SDS011;10494;50.868;4.180;2022-09-02T04:04:38;9.15;;;4.30;;
20669;SDS011;10494;50.868;4.180;2022-09-02T04:07:04;6.55;;;4.13;;
20669;SDS011;10494;50.868;4.180;2022-09-02T04:09:30;9.00;;;4.15;;
20669;SDS011;10494;50.868;4.180;2022-09-02T04:11:55;5.90;;;3.53;;
20669;SDS011;10494;50.868;4.180;2022-09-02T04:14:21;6.45;;;4.03;;
20669;SDS011;10494;50.868;4.180;2022-09-02T04:16:46;6.18;;;4.32;;
20669;SDS011;10494;50.868;4.180;2022-09-02T04:19:12;6.30;;;3.95;;
20669;SDS011;10494;50.868;4.180;2022-09-02T04:21:38;6.55;;;3.75;;
20669;SDS011;10494;50.868;4.180;2022-09-02T04:24:05;7.10;;;4.13;;
20669;SDS011;10494;50.868;4.180;2022-09-02T04:26:33;6.03;;;4.00;;
20669;SDS011;10494;50.868;4.180;2022-09-02T04:28:59;7.88;;;3.88;;
20669;SDS011;10494;50.868;4.180;2022-09-02T04:31:26;8.10;;;4.20;;
20669;SDS011;10494;50.868;4.180;2022-09-02T04:33:53;8.35;;;3.78;;
20669;SDS011;10494;50.868;4.180;2022-09-02T04:36:20;6.15;;;3.88;;
20669;SDS011;10494;50.868;4.180;2022-09-02T04:38:47;7.18;;;3.70;;
20669;SDS011;10494;50.868;4.180;2022-09-02T04:41:14;7.55;;;3.72;;
20669;SDS011;10494;50.868;4.180;2022-09-02T04:43:41;6.03;;;3.42;;
20669;SDS011;10494;50.868;4.180;2022-09-02T04:46:08;5.03;;;3.60;;
20669;SDS011;10494;50.868;4.180;2022-09-02T04:48:37;6.00;;;3.60;;
20669;SDS011;10494;50.868;4.180;2022-09-02T04:51:07;5.28;;;3.67;;
20669;SDS011;10494;50.868;4.180;2022-09-02T04:53:38;10.43;;;3.78;;
20669;SDS011;10494;50.868;4.180;2022-09-02T04:56:05;9.55;;;4.20;;
20669;SDS011;10494;50.868;4.180;2022-09-02T04:58:33;16.30;;;4.47;;
20669;SDS011;10494;50.868;4.180;2022-09-02T05:01:04;7.78;;;3.95;;
20669;SDS011;10494;50.868;4.180;2022-09-02T05:03:34;11.75;;;4.50;;
20669;SDS011;10494;50.868;4.180;2022-09-02T05:06:04;8.38;;;4.50;;
20669;SDS011;10494;50.868;4.180;2022-09-02T05:08:31;10.50;;;4.65;;
20669;SDS011;10494;50.868;4.180;2022-09-02T05:10:58;9.93;;;4.07;;
20669;SDS011;10494;50.868;4.180;2022-09-02T05:13:26;10.73;;;4.15;;
20669;SDS011;10494;50.868;4.180;2022-09-02T05:15:53;6.88;;;4.10;;
20669;SDS011;10494;50.868;4.180;2022-09-02T05:18:18;8.02;;;3.85;;
20669;SDS011;10494;50.868;4.180;2022-09-02T05:20:44;5.05;;;4.10;;
20669;SDS011;10494;50.868;4.180;2022-09-02T05:23:10;6.82;;;3.60;;
20669;SDS011;10494;50.868;4.180;2022-09-02T05:25:39;7.57;;;4.40;;
20669;SDS011;10494;50.868;4.180;2022-09-02T05:28:05;7.70;;;4.03;;
20669;SDS011;10494;50.868;4.180;2022-09-02T05:30:33;12.38;;;4.60;;
20669;SDS011;10494;50.868;4.180;2022-09-02T05:33:00;11.90;;;4.50;;
20669;SDS011;10494;50.868;4.180;2022-09-02T05:35:25;9.77;;;4.60;;
20669;SDS011;10494;50.868;4.180;2022-09-02T05:37:51;9.63;;;4.25;;
20669;SDS011;10494;50.868;4.180;2022-09-02T05:40:17;6.05;;;4.28;;
20669;SDS011;10494;50.868;4.180;2022-09-02T05:42:43;10.82;;;4.40;;
20669;SDS011;10494;50.868;4.180;2022-09-02T05:45:08;6.47;;;4.10;;
20669;SDS011;10494;50.868;4.180;2022-09-02T05:47:35;12.23;;;5.32;;
20669;SDS011;10494;50.868;4.180;2022-09-02T05:50:01;9.15;;;4.28;;
20669;SDS011;10494;50.868;4.180;2022-09-02T05:52:27;8.90;;;4.30;;
20669;SDS011;10494;50.868;4.180;2022-09-02T05:54:53;7.00;;;4.60;;
20669;SDS011;10494;50.868;4.180;2022-09-02T05:57:19;9.05;;;4.60;;
20669;SDS011;10494;50.868;4.180;2022-09-02T05:59:46;9.75;;;4.45;;
20669;SDS011;10494;50.868;4.180;2022-09-02T06:02:14;9.85;;;4.45;;
20669;SDS011;10494;50.868;4.180;2022-09-02T06:04:42;8.30;;;4.63;;
20669;SDS011;10494;50.868;4.180;2022-09-02T06:07:10;11.65;;;5.05;;
20669;SDS011;10494;50.868;4.180;2022-09-02T06:09:37;10.15;;;4.68;;
20669;SDS011;10494;50.868;4.180;2022-09-02T06:12:05;8.05;;;4.60;;
20669;SDS011;10494;50.868;4.180;2022-09-02T06:14:32;9.93;;;4.50;;
20669;SDS011;10494;50.868;4.180;2022-09-02T06:16:58;7.45;;;4.22;;
20669;SDS011;10494;50.868;4.180;2022-09-02T06:19:25;9.52;;;4.53;;
20669;SDS011;10494;50.868;4.180;2022-09-02T06:21:53;13.23;;;5.30;;
20669;SDS011;10494;50.868;4.180;2022-09-02T06:24:19;8.38;;;4.90;;
20669;SDS011;10494;50.868;4.180;2022-09-02T06:26:45;22.48;;;5.40;;
20669;SDS011;10494;50.868;4.180;2022-09-02T06:29:11;15.88;;;5.25;;
20669;SDS011;10494;50.868;4.180;2022-09-02T06:31:39;12.75;;;5.13;;
20669;SDS011;10494;50.868;4.180;2022-09-02T06:34:09;17.05;;;5.03;;
20669;SDS011;10494;50.868;4.180;2022-09-02T06:36:37;14.23;;;5.30;;
20669;SDS011;10494;50.868;4.180;2022-09-02T06:39:03;13.82;;;5.38;;
20669;SDS011;10494;50.868;4.180;2022-09-02T06:41:30;18.65;;;4.95;;
20669;SDS011;10494;50.868;4.180;2022-09-02T06:43:58;11.88;;;5.32;;
20669;SDS011;10494;50.868;4.180;2022-09-02T06:46:29;11.18;;;5.50;;
20669;SDS011;10494;50.868;4.180;2022-09-02T06:48:57;19.02;;;5.82;;
20669;SDS011;10494;50.868;4.180;2022-09-02T06:51:28;15.85;;;5.25;;
20669;SDS011;10494;50.868;4.180;2022-09-02T06:53:55;8.57;;;5.32;;
20669;SDS011;10494;50.868;4.180;2022-09-02T06:56:21;14.55;;;5.38;;
20669;SDS011;10494;50.868;4.180;2022-09-02T06:58:47;9.73;;;4.97;;
20669;SDS011;10494;50.868;4.180;2022-09-02T07:01:17;10.02;;;4.75;;
20669;SDS011;10494;50.868;4.180;2022-09-02T07:03:44;13.38;;;5.43;;
20669;SDS011;10494;50.868;4.180;2022-09-02T07:06:31;8.30;;;4.68;;
20669;SDS011;10494;50.868;4.180;2022-09-02T07:09:02;8.98;;;4.68;;
20669;SDS011;10494;50.868;4.180;2022-09-02T07:11:29;8.35;;;4.68;;
20669;SDS011;10494;50.868;4.180;2022-09-02T07:13:55;7.38;;;4.20;;
20669;SDS011;10494;50.868;4.180;2022-09-02T07:16:24;14.10;;;4.88;;
20669;SDS011;10494;50.868;4.180;2022-09-02T07:18:49;7.43;;;4.25;;
20669;SDS011;10494;50.868;4.180;2022-09-02T07:21:15;10.38;;;4.75;;
20669;SDS011;10494;50.868;4.180;2022-09-02T07:23:40;6.03;;;4.47;;
20669;SDS011;10494;50.868;4.180;2022-09-02T07:26:13;9.48;;;4.57;;
20669;SDS011;10494;50.868;4.180;2022-09-02T07:28:40;9.68;;;4.93;;
20669;SDS011;10494;50.868;4.180;2022-09-02T07:31:10;8.15;;;4.20;;
20669;SDS011;10494;50.868;4.180;2022-09-02T07:33:37;6.20;;;4.20;;
20669;SDS011;10494;50.868;4.180;2022-09-02T07:36:06;6.85;;;3.60;;
20669;SDS011;10494;50.868;4.180;2022-09-02T07:38:35;9.75;;;4.10;;
20669;SDS011;10494;50.868;4.180;2022-09-02T07:41:02;5.93;;;4.57;;
20669;SDS011;10494;50.868;4.180;2022-09-02T07:43:29;7.03;;;3.63;;
20669;SDS011;10494;50.868;4.180;2022-09-02T07:45:56;5.47;;;3.60;;
20669;SDS011;10494;50.868;4.180;2022-09-02T07:48:22;6.93;;;4.35;;
20669;SDS011;10494;50.868;4.180;2022-09-02T07:50:49;5.53;;;3.45;;
20669;SDS011;10494;50.868;4.180;2022-09-02T07:53:15;6.18;;;3.10;;
20669;SDS011;10494;50.868;4.180;2022-09-02T07:55:42;3.67;;;2.97;;
20669;SDS011;10494;50.868;4.180;2022-09-02T07:58:08;3.85;;;2.97;;
20669;SDS011;10494;50.868;4.180;2022-09-02T08:00:35;6.18;;;3.72;;
20669;SDS011;10494;50.868;4.180;2022-09-02T08:03:01;3.38;;;2.75;;
20669;SDS011;10494;50.868;4.180;2022-09-02T08:05:28;4.68;;;3.60;;
20669;SDS011;10494;50.868;4.180;2022-09-02T08:07:54;12.27;;;3.90;;
20669;SDS011;10494;50.868;4.180;2022-09-02T08:10:20;5.18;;;4.15;;
20669;SDS011;10494;50.868;4.180;2022-09-02T08:12:49;4.32;;;3.30;;
20669;SDS011;10494;50.868;4.180;2022-09-02T08:15:15;7.45;;;3.70;;
20669;SDS011;10494;50.868;4.180;2022-09-02T08:17:41;5.13;;;4.00;;
20669;SDS011;10494;50.868;4.180;2022-09-02T08:20:08;7.65;;;3.70;;
20669;SDS011;10494;50.868;4.180;2022-09-02T08:22:36;5.78;;;3.17;;
20669;SDS011;10494;50.868;4.180;2022-09-02T08:25:02;7.25;;;3.90;;
20669;SDS011;10494;50.868;4.180;2022-09-02T08:27:28;5.68;;;3.80;;
20669;SDS011;10494;50.868;4.180;2022-09-02T08:29:54;4.45;;;3.08;;
20669;SDS011;10494;50.868;4.180;2022-09-02T08:32:19;8.93;;;3.85;;
20669;SDS011;10494;50.868;4.180;2022-09-02T08:34:45;5.38;;;3.85;;
20669;SDS011;10494;50.868;4.180;2022-09-02T08:37:11;7.40;;;2.85;;
20669;SDS011;10494;50.868;4.180;2022-09-02T08:39:37;4.55;;;3.20;;
20669;SDS011;10494;50.868;4.180;2022-09-02T08:44:37;6.18;;;2.78;;
20669;SDS011;10494;50.868;4.180;2022-09-02T08:47:05;5.90;;;3.20;;
20669;SDS011;10494;50.868;4.180;2022-09-02T08:49:43;7.85;;;3.22;;
20669;SDS011;10494;50.868;4.180;2022-09-02T08:52:42;4.75;;;2.90;;
20669;SDS011;10494;50.868;4.180;2022-09-02T08:55:49;4.10;;;3.13;;
20669;SDS011;10494;50.868;4.180;2022-09-02T08:58:21;3.95;;;3.15;;
20669;SDS011;10494;50.868;4.180;2022-09-02T09:00:58;12.65;;;3.20;;
20669;SDS011;10494;50.868;4.180;2022-09-02T09:03:42;6.63;;;3.05;;
20669;SDS011;10494;50.868;4.180;2022-09-02T09:06:24;4.10;;;2.63;;
20669;SDS011;10494;50.868;4.180;2022-09-02T09:09:22;9.55;;;3.33;;
20669;SDS011;10494;50.868;4.180;2022-09-02T09:12:12;3.58;;;2.40;;
20669;SDS011;10494;50.868;4.180;2022-09-02T09:18:04;6.43;;;3.35;;
20669;SDS011;10494;50.868;4.180;2022-09-02T09:20:32;7.47;;;3.15;;
20669;SDS011;10494;50.868;4.180;2022-09-02T09:26:03;7.10;;;2.97;;
20669;SDS011;10494;50.868;4.180;2022-09-02T09:28:29;4.65;;;2.55;;
20669;SDS011;10494;50.868;4.180;2022-09-02T09:30:55;5.85;;;2.72;;
20669;SDS011;10494;50.868;4.180;2022-09-02T09:33:24;9.00;;;3.13;;
20669;SDS011;10494;50.868;4.180;2022-09-02T09:35:53;7.38;;;2.95;;
20669;SDS011;10494;50.868;4.180;2022-09-02T09:38:30;3.85;;;2.67;;
20669;SDS011;10494;50.868;4.180;2022-09-02T09:41:16;4.50;;;2.70;;
20669;SDS011;10494;50.868;4.180;2022-09-02T09:43:48;5.90;;;2.80;;
20669;SDS011;10494;50.868;4.180;2022-09-02T09:48:48;4.47;;;3.03;;
20669;SDS011;10494;50.868;4.180;2022-09-02T09:51:15;5.80;;;2.63;;
20669;SDS011;10494;50.868;4.180;2022-09-02T09:53:41;5.22;;;3.13;;
20669;SDS011;10494;50.868;4.180;2022-09-02T10:01:11;6.50;;;2.58;;
20669;SDS011;10494;50.868;4.180;2022-09-02T10:03:41;8.10;;;2.78;;
20669;SDS011;10494;50.868;4.180;2022-09-02T10:06:43;3.90;;;2.63;;
20669;SDS011;10494;50.868;4.180;2022-09-02T10:11:53;4.82;;;2.78;;
20669;SDS011;10494;50.868;4.180;2022-09-02T10:14:21;3.45;;;2.70;;
20669;SDS011;10494;50.868;4.180;2022-09-02T10:27:23;10.18;;;3.03;;
20669;SDS011;10494;50.868;4.180;2022-09-02T10:30:23;6.03;;;2.88;;
20669;SDS011;10494;50.868;4.180;2022-09-02T10:35:27;5.40;;;2.42;;
20669;SDS011;10494;50.868;4.180;2022-09-02T10:46:14;4.10;;;2.63;;
20669;SDS011;10494;50.868;4.180;2022-09-02T10:51:39;8.80;;;2.70;;
20669;SDS011;10494;50.868;4.180;2022-09-02T10:54:17;6.32;;;2.33;;
20669;SDS011;10494;50.868;4.180;2022-09-02T10:56:54;3.13;;;2.10;;
20669;SDS011;10494;50.868;4.180;2022-09-02T10:59:29;2.97;;;2.22;;
20669;SDS011;10494;50.868;4.180;2022-09-02T11:02:11;3.03;;;2.22;;
20669;SDS011;10494;50.868;4.180;2022-09-02T11:05:06;13.27;;;2.97;;
20669;SDS011;10494;50.868;4.180;2022-09-02T11:10:59;11.07;;;2.75;;
20669;SDS011;10494;50.868;4.180;2022-09-02T11:16:22;5.38;;;2.60;;
20669;SDS011;10494;50.868;4.180;2022-09-02T11:19:12;3.53;;;2.55;;
20669;SDS011;10494;50.868;4.180;2022-09-02T11:24:18;4.53;;;2.50;;
20669;SDS011;10494;50.868;4.180;2022-09-02T11:35:18;4.35;;;2.40;;
20669;SDS011;10494;50.868;4.180;2022-09-02T11:43:14;3.03;;;2.58;;
20669;SDS011;10494;50.868;4.180;2022-09-02T11:54:11;5.38;;;2.65;;
20669;SDS011;10494;50.868;4.180;2022-09-02T11:56:41;6.00;;;2.25;;
20669;SDS011;10494;50.868;4.180;2022-09-02T11:59:20;6.45;;;2.80;;
20669;SDS011;10494;50.868;4.180;2022-09-02T12:02:04;5.07;;;2.42;;
20669;SDS011;10494;50.868;4.180;2022-09-02T12:04:30;3.90;;;2.75;;
20669;SDS011;10494;50.868;4.180;2022-09-02T12:09:49;7.03;;;2.60;;
20669;SDS011;10494;50.868;4.180;2022-09-02T12:15:02;4.60;;;2.08;;
20669;SDS011;10494;50.868;4.180;2022-09-02T12:23:06;7.15;;;2.22;;
20669;SDS011;10494;50.868;4.180;2022-09-02T12:25:35;5.35;;;2.50;;
20669;SDS011;10494;50.868;4.180;2022-09-02T12:41:55;4.78;;;2.55;;
20669;SDS011;10494;50.868;4.180;2022-09-02T12:50:16;3.42;;;2.25;;
20669;SDS011;10494;50.868;4.180;2022-09-02T12:52:51;5.40;;;2.53;;
20669;SDS011;10494;50.868;4.180;2022-09-02T12:55:37;8.02;;;1.98;;
20669;SDS011;10494;50.868;4.180;2022-09-02T12:58:09;5.38;;;2.28;;
20669;SDS011;10494;50.868;4.180;2022-09-02T13:01:03;4.90;;;2.40;;
20669;SDS011;10494;50.868;4.180;2022-09-02T13:31:37;3.65;;;2.10;;
20669;SDS011;10494;50.868;4.180;2022-09-02T13:34:04;2.25;;;2.05;;
20669;SDS011;10494;50.868;4.180;2022-09-02T13:36:35;4.68;;;2.15;;
20669;SDS011;10494;50.868;4.180;2022-09-02T13:39:15;4.13;;;1.95;;
20669;SDS011;10494;50.868;4.180;2022-09-02T13:41:43;3.03;;;1.90;;
20669;SDS011;10494;50.868;4.180;2022-09-02T13:44:10;7.60;;;2.05;;
20669;SDS011;10494;50.868;4.180;2022-09-02T13:46:48;2.45;;;2.00;;
20669;SDS011;10494;50.868;4.180;2022-09-02T13:49:17;5.72;;;2.40;;
20669;SDS011;10494;50.868;4.180;2022-09-02T13:51:45;2.30;;;1.90;;
20669;SDS011;10494;50.868;4.180;2022-09-02T13:54:11;2.80;;;2.05;;
20669;SDS011;10494;50.868;4.180;2022-09-02T13:56:38;2.78;;;1.95;;
20669;SDS011;10494;50.868;4.180;2022-09-02T13:59:03;4.82;;;2.22;;
20669;SDS011;10494;50.868;4.180;2022-09-02T14:01:30;5.85;;;1.90;;
20669;SDS011;10494;50.868;4.180;2022-09-02T14:03:59;4.22;;;2.10;;
20669;SDS011;10494;50.868;4.180;2022-09-02T14:06:29;3.60;;;1.90;;
20669;SDS011;10494;50.868;4.180;2022-09-02T14:09:25;5.43;;;2.30;;
20669;SDS011;10494;50.868;4.180;2022-09-02T14:11:55;5.15;;;2.20;;
20669;SDS011;10494;50.868;4.180;2022-09-02T14:14:23;4.40;;;2.95;;
20669;SDS011;10494;50.868;4.180;2022-09-02T14:16:49;7.35;;;2.08;;
20669;SDS011;10494;50.868;4.180;2022-09-02T14:21:46;4.00;;;2.17;;
20669;SDS011;10494;50.868;4.180;2022-09-02T14:24:23;4.55;;;1.98;;
20669;SDS011;10494;50.868;4.180;2022-09-02T14:26:54;4.05;;;2.00;;
20669;SDS011;10494;50.868;4.180;2022-09-02T14:29:24;4.82;;;2.08;;
20669;SDS011;10494;50.868;4.180;2022-09-02T14:32:02;2.13;;;1.65;;
20669;SDS011;10494;50.868;4.180;2022-09-02T14:34:35;4.80;;;1.90;;
20669;SDS011;10494;50.868;4.180;2022-09-02T14:37:22;2.17;;;1.88;;
20669;SDS011;10494;50.868;4.180;2022-09-02T14:42:32;5.88;;;2.00;;
20669;SDS011;10494;50.868;4.180;2022-09-02T14:44:58;3.05;;;2.00;;
20669;SDS011;10494;50.868;4.180;2022-09-02T14:47:27;2.80;;;1.77;;
20669;SDS011;10494;50.868;4.180;2022-09-02T14:49:53;3.75;;;2.30;;
20669;SDS011;10494;50.868;4.180;2022-09-02T14:52:21;4.10;;;2.35;;
20669;SDS011;10494;50.868;4.180;2022-09-02T14:54:53;3.65;;;1.65;;
20669;SDS011;10494;50.868;4.180;2022-09-02T14:59:46;4.30;;;1.92;;
20669;SDS011;10494;50.868;4.180;2022-09-02T15:04:58;2.65;;;2.00;;
20669;SDS011;10494;50.868;4.180;2022-09-02T15:07:26;3.97;;;2.00;;
20669;SDS011;10494;50.868;4.180;2022-09-02T15:09:52;4.32;;;2.38;;
20669;SDS011;10494;50.868;4.180;2022-09-02T15:12:22;2.80;;;1.83;;
20669;SDS011;10494;50.868;4.180;2022-09-02T15:14:51;4.97;;;1.83;;
20669;SDS011;10494;50.868;4.180;2022-09-02T15:17:17;2.75;;;1.77;;
20669;SDS011;10494;50.868;4.180;2022-09-02T15:19:43;2.78;;;1.80;;
20669;SDS011;10494;50.868;4.180;2022-09-02T15:22:09;9.77;;;2.65;;
20669;SDS011;10494;50.868;4.180;2022-09-02T15:24:35;3.35;;;1.83;;
20669;SDS011;10494;50.868;4.180;2022-09-02T15:27:00;3.17;;;2.00;;
20669;SDS011;10494;50.868;4.180;2022-09-02T15:29:26;2.85;;;1.80;;
20669;SDS011;10494;50.868;4.180;2022-09-02T15:31:52;5.45;;;2.20;;
20669;SDS011;10494;50.868;4.180;2022-09-02T15:34:21;2.95;;;1.83;;
20669;SDS011;10494;50.868;4.180;2022-09-02T15:36:47;2.72;;;1.85;;
20669;SDS011;10494;50.868;4.180;2022-09-02T15:39:13;6.50;;;1.65;;
20669;SDS011;10494;50.868;4.180;2022-09-02T15:41:41;6.13;;;1.73;;
20669;SDS011;10494;50.868;4.180;2022-09-02T15:44:07;5.85;;;2.10;;
20669;SDS011;10494;50.868;4.180;2022-09-02T15:46:33;3.42;;;1.70;;
20669;SDS011;10494;50.868;4.180;2022-09-02T15:49:01;6.68;;;1.70;;
20669;SDS011;10494;50.868;4.180;2022-09-02T15:51:32;3.03;;;1.90;;
20669;SDS011;10494;50.868;4.180;2022-09-02T15:53:59;3.55;;;1.80;;
20669;SDS011;10494;50.868;4.180;2022-09-02T15:56:27;3.63;;;1.92;;
20669;SDS011;10494;50.868;4.180;2022-09-02T15:58:58;5.18;;;2.00;;
20669;SDS011;10494;50.868;4.180;2022-09-02T16:01:25;6.80;;;1.92;;
20669;SDS011;10494;50.868;4.180;2022-09-02T16:03:53;4.28;;;1.70;;
20669;SDS011;10494;50.868;4.180;2022-09-02T16:06:19;3.75;;;1.67;;
20669;SDS011;10494;50.868;4.180;2022-09-02T16:08:45;7.03;;;2.75;;
20669;SDS011;10494;50.868;4.180;2022-09-02T16:11:11;5.75;;;3.20;;
20669;SDS011;10494;50.868;4.180;2022-09-02T16:13:37;8.52;;;1.90;;
20669;SDS011;10494;50.868;4.180;2022-09-02T16:16:03;2.95;;;1.65;;
20669;SDS011;10494;50.868;4.180;2022-09-02T16:18:30;2.88;;;1.40;;
20669;SDS011;10494;50.868;4.180;2022-09-02T16:20:57;4.35;;;1.58;;
20669;SDS011;10494;50.868;4.180;2022-09-02T16:23:22;4.90;;;1.35;;
20669;SDS011;10494;50.868;4.180;2022-09-02T16:26:04;2.38;;;1.45;;
20669;SDS011;10494;50.868;4.180;2022-09-02T16:28:33;2.97;;;1.15;;
20669;SDS011;10494;50.868;4.180;2022-09-02T16:31:03;3.65;;;1.38;;
20669;SDS011;10494;50.868;4.180;2022-09-02T16:33:30;3.20;;;1.73;;
20669;SDS011;10494;50.868;4.180;2022-09-02T16:35:56;1.55;;;1.42;;
20669;SDS011;10494;50.868;4.180;2022-09-02T16:38:21;4.40;;;1.60;;
20669;SDS011;10494;50.868;4.180;2022-09-02T16:40:51;2.10;;;1.40;;
20669;SDS011;10494;50.868;4.180;2022-09-02T16:43:18;1.65;;;1.52;;
20669;SDS011;10494;50.868;4.180;2022-09-02T16:45:45;3.22;;;1.60;;
20669;SDS011;10494;50.868;4.180;2022-09-02T16:48:11;5.50;;;1.73;;
20669;SDS011;10494;50.868;4.180;2022-09-02T16:50:37;5.65;;;2.00;;
20669;SDS011;10494;50.868;4.180;2022-09-02T16:53:03;5.00;;;1.88;;
20669;SDS011;10494;50.868;4.180;2022-09-02T16:55:29;5.03;;;2.72;;
20669;SDS011;10494;50.868;4.180;2022-09-02T16:57:55;6.70;;;2.25;;
20669;SDS011;10494;50.868;4.180;2022-09-02T17:00:24;3.88;;;2.50;;
20669;SDS011;10494;50.868;4.180;2022-09-02T17:02:51;3.10;;;2.50;;
20669;SDS011;10494;50.868;4.180;2022-09-02T17:05:16;5.20;;;2.75;;
20669;SDS011;10494;50.868;4.180;2022-09-02T17:07:42;7.57;;;2.60;;
20669;SDS011;10494;50.868;4.180;2022-09-02T17:10:09;5.53;;;2.55;;
20669;SDS011;10494;50.868;4.180;2022-09-02T17:12:35;5.88;;;2.75;;
20669;SDS011;10494;50.868;4.180;2022-09-02T17:15:00;9.60;;;3.30;;
20669;SDS011;10494;50.868;4.180;2022-09-02T17:17:26;6.38;;;2.65;;
20669;SDS011;10494;50.868;4.180;2022-09-02T17:19:52;8.63;;;3.10;;